Terminal Aerodrome Forecast
Issued by NWS

Home | Current Version | Previous Version | Text Only | Print | Product List | Glossary On
Versions: 1 2 3 4 5 6 7 8 9 10 11 12 13 14 15 16 17 18
000
FTUS46 KSEW 270500
TAFPAE
TAF
KPAE 270521Z 2706/2806 18015G25KT P6SM -RA SCT025 BKN035 OVC080
     FM270800 17015G30KT P6SM -RA SCT015 OVC025
     FM271800 18018G32KT P6SM -RA SCT025 OVC030=

USA.gov is the U.S. government's official web portal to all federal, state and local government web resources and services.